Time;durP1;ratioP1;P1;durP2;ratioP2;P2;SDS_P1;SDS_P2;PMS_P1;PMS_P2;Temp;Humidity;BMP_temperature;BMP_pressure;BME280_temperature;BME280_humidity;BME280_pressure;Samples;Min_cycle;Max_cycle;Signal;HPM_P1;HPM_P2
2021/09/03 00:00:23;;;;;;;3.28;1.60;;;14.80;70.70;;;;;;5015332;28;20025;-65
2021/09/03 00:02:49;;;;;;;1.30;1.20;;;14.80;70.70;;;;;;5014911;28;20121;-65
2021/09/03 00:05:20;;;;;;;1.25;1.23;;;14.80;70.70;;;;;;5014842;28;20422;-65
2021/09/03 00:07:46;;;;;;;2.20;1.17;;;14.80;70.30;;;;;;5015096;28;20054;-65
2021/09/03 00:10:14;;;;;;;1.30;1.20;;;14.80;70.10;;;;;;5015094;28;20425;-65
2021/09/03 00:12:41;;;;;;;2.40;1.30;;;14.80;69.80;;;;;;5005349;28;20022;-65
2021/09/03 00:15:11;;;;;;;2.70;2.00;;;14.80;69.50;;;;;;5004602;28;20026;-65
2021/09/03 00:17:37;;;;;;;1.98;1.55;;;14.70;69.40;;;;;;5033931;28;20021;-65
2021/09/03 00:20:04;;;;;;;1.50;1.20;;;14.70;69.20;;;;;;5034387;28;20036;-65
2021/09/03 00:22:30;;;;;;;2.05;1.50;;;14.70;69.60;;;;;;5034345;28;20030;-65
2021/09/03 00:24:55;;;;;;;1.33;1.23;;;14.60;69.40;;;;;;5034279;28;20545;-65
2021/09/03 00:27:21;;;;;;;2.72;1.60;;;14.60;69.70;;;;;;5016518;28;20028;-65
2021/09/03 00:29:47;;;;;;;1.80;1.70;;;14.60;69.80;;;;;;5013873;28;20100;-65
2021/09/03 00:32:12;;;;;;;3.40;1.52;;;14.60;69.60;;;;;;5014203;28;20042;-65
2021/09/03 00:34:38;;;;;;;1.70;1.60;;;14.50;69.40;;;;;;5014272;28;20378;-65
2021/09/03 00:37:04;;;;;;;1.50;1.30;;;14.50;69.50;;;;;;5014206;28;20037;-65
2021/09/03 00:39:29;;;;;;;1.38;1.27;;;14.50;69.40;;;;;;5014557;28;20045;-65
2021/09/03 00:41:55;;;;;;;1.85;1.48;;;14.50;69.70;;;;;;5017163;28;20113;-65
2021/09/03 00:44:20;;;;;;;5.35;1.40;;;14.40;69.60;;;;;;5014188;28;20109;-65
2021/09/03 00:46:46;;;;;;;1.48;1.38;;;14.40;69.40;;;;;;5028678;28;20116;-65
2021/09/03 00:49:12;;;;;;;2.25;1.73;;;14.40;69.40;;;;;;5014132;28;20129;-65
2021/09/03 00:51:39;;;;;;;1.67;1.50;;;14.40;69.20;;;;;;5014104;28;20076;-65
2021/09/03 00:54:05;;;;;;;1.50;1.40;;;14.30;69.30;;;;;;5013923;28;20037;-65
2021/09/03 00:56:31;;;;;;;1.60;1.50;;;14.30;69.30;;;;;;5013677;28;20477;-65
2021/09/03 00:58:57;;;;;;;1.98;1.77;;;14.30;69.30;;;;;;5014183;28;20030;-65
2021/09/03 01:01:23;;;;;;;1.63;1.52;;;14.30;69.40;;;;;;5013846;28;20037;-65
2021/09/03 01:03:49;;;;;;;2.70;1.50;;;14.30;69.50;;;;;;5013632;28;20029;-65
2021/09/03 01:06:15;;;;;;;1.77;1.55;;;14.20;69.50;;;;;;5012851;28;20028;-65
2021/09/03 01:08:40;;;;;;;1.70;1.60;;;14.20;69.40;;;;;;5010378;28;20084;-65
2021/09/03 01:11:06;;;;;;;1.80;1.50;;;14.20;69.50;;;;;;5013678;28;20076;-65
2021/09/03 01:13:32;;;;;;;2.88;1.40;;;14.20;69.30;;;;;;5014465;28;20030;-64
2021/09/03 01:15:58;;;;;;;2.05;1.33;;;14.20;69.40;;;;;;5013635;28;20037;-65
2021/09/03 01:18:23;;;;;;;2.55;1.45;;;14.10;69.30;;;;;;5013702;28;20033;-64
2021/09/03 01:20:49;;;;;;;1.08;1.00;;;14.10;69.40;;;;;;4997683;28;20038;-65
2021/09/03 01:23:15;;;;;;;1.42;1.33;;;14.10;69.10;;;;;;4993948;28;20022;-64
2021/09/03 01:25:41;;;;;;;1.48;1.38;;;14.10;69.10;;;;;;4997647;28;20018;-65
2021/09/03 01:28:07;;;;;;;1.52;1.42;;;14.00;69.00;;;;;;5013828;28;20489;-65
2021/09/03 01:30:33;;;;;;;1.40;1.30;;;14.00;69.10;;;;;;5013478;28;20052;-65
2021/09/03 01:32:58;;;;;;;1.48;1.40;;;13.90;69.10;;;;;;5013365;28;20081;-65
2021/09/03 01:35:24;;;;;;;1.55;1.45;;;14.00;69.30;;;;;;5013469;28;20033;-65
2021/09/03 01:37:50;;;;;;;1.73;1.60;;;14.00;69.60;;;;;;5012877;28;20059;-65
2021/09/03 01:40:16;;;;;;;1.23;1.23;;;14.00;69.30;;;;;;5013295;28;20076;-64
2021/09/03 01:42:41;;;;;;;1.20;1.20;;;13.90;69.10;;;;;;5014006;28;20050;-65
2021/09/03 01:45:10;;;;;;;1.65;1.48;;;13.90;69.10;;;;;;5032866;28;20062;-65
2021/09/03 01:47:36;;;;;;;1.60;1.50;;;13.90;69.00;;;;;;5033147;28;20028;-65
2021/09/03 01:50:04;;;;;;;1.30;1.30;;;13.90;69.00;;;;;;5033154;28;20366;-65
2021/09/03 01:52:30;;;;;;;2.13;1.63;;;13.80;69.10;;;;;;5032953;28;20017;-65
2021/09/03 01:54:55;;;;;;;1.85;1.75;;;13.80;69.10;;;;;;5015849;28;20037;-65
2021/09/03 01:57:21;;;;;;;1.17;1.17;;;13.80;69.10;;;;;;5013413;28;20378;-64
2021/09/03 01:59:47;;;;;;;1.92;1.60;;;13.80;69.10;;;;;;5013423;28;20054;-65
2021/09/03 02:02:12;;;;;;;2.13;1.80;;;13.80;69.10;;;;;;5013102;28;20030;-65
2021/09/03 02:04:38;;;;;;;1.40;1.30;;;13.80;69.10;;;;;;5013046;28;20561;-65
2021/09/03 02:07:04;;;;;;;2.10;1.90;;;13.80;69.20;;;;;;5012805;28;20045;-65
2021/09/03 02:09:29;;;;;;;2.10;1.70;;;13.70;69.10;;;;;;5007522;28;20093;-65
2021/09/03 02:11:55;;;;;;;1.67;1.58;;;13.70;69.20;;;;;;4997581;28;20378;-65
2021/09/03 02:14:21;;;;;;;1.75;1.63;;;13.70;69.20;;;;;;5024786;28;20030;-65
2021/09/03 02:16:46;;;;;;;2.63;2.10;;;13.60;69.20;;;;;;5018077;28;20037;-65
2021/09/03 02:19:12;;;;;;;1.77;1.67;;;13.60;69.30;;;;;;5016888;28;20085;-65
2021/09/03 02:21:38;;;;;;;1.75;1.65;;;13.50;69.40;;;;;;5016756;28;20381;-65
2021/09/03 02:24:05;;;;;;;1.80;1.70;;;13.50;69.60;;;;;;5016782;28;20041;-65
2021/09/03 02:26:30;;;;;;;1.67;1.58;;;13.50;69.60;;;;;;5016425;28;20041;-65
2021/09/03 02:28:56;;;;;;;2.33;1.70;;;13.40;69.70;;;;;;5016701;28;20474;-65
2021/09/03 02:31:22;;;;;;;1.40;1.30;;;13.40;69.70;;;;;;5016456;28;20078;-65
2021/09/03 02:33:48;;;;;;;1.75;1.65;;;13.40;69.70;;;;;;5016748;28;20470;-65
2021/09/03 02:36:13;;;;;;;4.35;2.83;;;13.40;69.80;;;;;;5016859;28;20041;-65
2021/09/03 02:38:39;;;;;;;2.67;1.67;;;13.30;70.00;;;;;;5016806;28;20481;-65
2021/09/03 02:41:05;;;;;;;2.22;2.00;;;13.30;70.00;;;;;;5020501;28;20057;-65
2021/09/03 02:43:30;;;;;;;2.92;1.75;;;13.30;70.10;;;;;;5035527;28;20033;-65
2021/09/03 02:45:56;;;;;;;1.90;1.63;;;13.20;70.10;;;;;;5015845;28;20040;-64
2021/09/03 02:48:22;;;;;;;1.77;1.67;;;13.20;70.20;;;;;;5016356;28;20378;-65
2021/09/03 02:50:48;;;;;;;1.83;1.73;;;13.20;70.50;;;;;;5016368;28;20081;-65
2021/09/03 02:53:13;;;;;;;2.85;2.00;;;13.20;70.40;;;;;;5016207;28;20022;-65
2021/09/03 02:55:39;;;;;;;1.83;1.73;;;13.20;70.60;;;;;;5016310;28;20037;-65
2021/09/03 02:58:05;;;;;;;1.92;1.70;;;13.10;70.60;;;;;;5016456;28;20050;-65
2021/09/03 03:00:30;;;;;;;2.33;1.70;;;13.10;70.70;;;;;;5016176;28;20025;-65
2021/09/03 03:02:58;;;;;;;1.63;1.52;;;13.10;70.70;;;;;;5015899;28;20041;-65
2021/09/03 03:05:23;;;;;;;2.80;2.08;;;13.10;70.80;;;;;;5015947;28;20034;-65
2021/09/03 03:07:49;;;;;;;2.17;1.98;;;13.10;70.80;;;;;;5011915;28;20075;-65
2021/09/03 03:10:15;;;;;;;2.13;1.92;;;13.10;71.40;;;;;;4996540;28;20124;-65
2021/09/03 03:12:41;;;;;;;2.90;1.95;;;13.10;70.80;;;;;;5001206;28;20494;-65
2021/09/03 03:15:08;;;;;;;2.45;1.80;;;13.10;70.70;;;;;;5035742;28;20021;-65
2021/09/03 03:17:33;;;;;;;2.13;1.92;;;13.10;70.70;;;;;;5026639;28;20033;-65
2021/09/03 03:19:59;;;;;;;4.88;1.85;;;13.10;70.80;;;;;;5015700;28;20022;-65
2021/09/03 03:22:25;;;;;;;3.65;2.08;;;13.10;70.80;;;;;;5016152;28;20018;-65
2021/09/03 03:24:50;;;;;;;2.35;1.95;;;13.10;70.70;;;;;;5015763;28;20434;-65
2021/09/03 03:27:16;;;;;;;3.25;2.30;;;13.10;70.70;;;;;;5015597;28;20469;-65
2021/09/03 03:29:42;;;;;;;3.15;2.20;;;13.10;70.90;;;;;;5015672;28;20101;-65
2021/09/03 03:32:08;;;;;;;2.55;1.95;;;13.00;70.80;;;;;;5015488;28;20477;-65
2021/09/03 03:34:34;;;;;;;2.38;2.17;;;13.00;70.80;;;;;;5015279;28;20516;-65
2021/09/03 03:37:00;;;;;;;2.20;2.00;;;13.10;71.10;;;;;;5015469;28;20029;-65
2021/09/03 03:39:25;;;;;;;5.57;2.30;;;13.00;70.90;;;;;;5015663;28;20034;-64
2021/09/03 03:41:52;;;;;;;2.53;2.10;;;13.10;70.90;;;;;;5015468;28;20108;-64
2021/09/03 03:44:18;;;;;;;2.63;2.30;;;13.10;70.80;;;;;;5030873;28;20030;-64
2021/09/03 03:46:44;;;;;;;2.83;1.92;;;13.10;70.70;;;;;;5035327;28;20504;-65
2021/09/03 03:49:09;;;;;;;2.42;2.13;;;13.10;70.60;;;;;;5035304;28;20029;-64
2021/09/03 03:51:35;;;;;;;2.30;2.10;;;13.10;70.70;;;;;;5014772;28;20523;-64
2021/09/03 03:54:01;;;;;;;3.42;2.10;;;13.10;70.70;;;;;;5015345;28;20030;-64
2021/09/03 03:56:26;;;;;;;2.38;2.17;;;13.10;70.60;;;;;;5015029;28;20432;-64
2021/09/03 03:58:52;;;;;;;2.70;2.10;;;13.20;70.80;;;;;;5015159;28;20366;-64
2021/09/03 04:01:18;;;;;;;2.85;2.17;;;13.20;70.70;;;;;;5014993;28;20026;-64
2021/09/03 04:03:43;;;;;;;1.88;1.73;;;13.20;70.80;;;;;;5015271;28;20077;-64
2021/09/03 04:06:09;;;;;;;2.80;2.15;;;13.20;70.80;;;;;;5018351;28;20535;-64
2021/09/03 04:08:35;;;;;;;2.22;1.88;;;13.30;70.70;;;;;;5034658;28;20425;-64
2021/09/03 04:11:00;;;;;;;2.50;2.00;;;13.30;70.70;;;;;;5033224;28;20052;-64
2021/09/03 04:13:26;;;;;;;2.08;1.80;;;13.40;70.70;;;;;;5022193;28;20025;-64
2021/09/03 04:15:51;;;;;;;4.20;1.90;;;13.40;70.60;;;;;;5034465;28;20453;-64
2021/09/03 04:18:17;;;;;;;2.40;1.92;;;13.40;70.60;;;;;;5034710;28;20079;-64
2021/09/03 04:20:43;;;;;;;2.42;1.85;;;13.50;71.10;;;;;;5034610;28;20028;-64
2021/09/03 04:23:09;;;;;;;2.00;1.75;;;13.50;70.30;;;;;;5001443;28;20038;-64
2021/09/03 04:25:35;;;;;;;3.05;1.90;;;13.50;70.30;;;;;;5014501;28;20049;-64
2021/09/03 04:28:01;;;;;;;2.70;2.50;;;13.60;70.40;;;;;;5014711;28;20056;-64
2021/09/03 04:30:27;;;;;;;1.95;1.77;;;13.60;70.20;;;;;;5013979;28;20051;-64
2021/09/03 04:32:52;;;;;;;1.90;1.80;;;13.70;70.20;;;;;;5014308;28;20038;-64
2021/09/03 04:35:18;;;;;;;3.03;1.83;;;13.70;70.10;;;;;;5014404;28;20057;-65
2021/09/03 04:37:45;;;;;;;2.00;1.80;;;13.70;69.90;;;;;;5014215;28;20033;-64
2021/09/03 04:40:12;;;;;;;3.17;1.70;;;13.70;69.90;;;;;;5013885;28;20030;-65
2021/09/03 04:42:38;;;;;;;2.00;1.90;;;13.80;69.90;;;;;;5023820;28;20603;-65
2021/09/03 04:45:04;;;;;;;1.83;1.65;;;13.90;69.80;;;;;;5033937;28;20025;-64
2021/09/03 04:47:30;;;;;;;3.10;1.90;;;13.90;69.70;;;;;;5033624;28;20079;-65
2021/09/03 04:49:56;;;;;;;1.98;1.83;;;14.00;69.80;;;;;;5031779;28;20103;-65
2021/09/03 04:52:21;;;;;;;3.58;1.70;;;14.20;69.80;;;;;;5033072;28;20088;-65
2021/09/03 04:54:47;;;;;;;3.17;1.80;;;14.40;69.20;;;;;;5034510;28;20049;-65
2021/09/03 04:57:13;;;;;;;1.55;1.45;;;14.60;69.10;;;;;;5028575;28;20037;-65
2021/09/03 04:59:38;;;;;;;4.22;1.73;;;14.90;68.50;;;;;;5014223;28;20029;-65
2021/09/03 05:02:04;;;;;;;1.90;1.80;;;15.00;68.00;;;;;;5018274;28;20029;-65
2021/09/03 05:04:30;;;;;;;2.75;1.63;;;15.10;67.80;;;;;;5015136;28;20055;-62
2021/09/03 05:06:55;;;;;;;2.55;1.60;;;15.30;67.90;;;;;;5009430;28;20057;-62
2021/09/03 05:09:21;;;;;;;1.95;1.58;;;15.40;67.40;;;;;;5009090;28;20081;-62
2021/09/03 05:11:46;;;;;;;2.40;1.65;;;15.40;67.40;;;;;;5012646;28;20018;-61
2021/09/03 05:14:12;;;;;;;2.05;1.35;;;15.40;68.40;;;;;;5008455;28;20022;-61
2021/09/03 05:16:38;;;;;;;1.27;1.17;;;15.60;69.50;;;;;;5005137;28;20152;-61
2021/09/03 05:19:04;;;;;;;1.60;1.30;;;15.90;69.60;;;;;;5008924;28;20124;-61
2021/09/03 05:21:29;;;;;;;1.88;1.70;;;16.30;68.90;;;;;;5010998;28;20034;-61
2021/09/03 05:23:55;;;;;;;1.50;1.40;;;16.80;68.10;;;;;;5010222;28;20026;-61
2021/09/03 05:26:20;;;;;;;1.45;1.35;;;17.20;66.60;;;;;;5013769;28;20032;-61
2021/09/03 05:28:46;;;;;;;1.77;1.42;;;17.50;65.80;;;;;;5010750;28;20032;-61
2021/09/03 05:31:14;;;;;;;1.42;1.20;;;17.80;65.10;;;;;;5011347;28;20124;-61
2021/09/03 05:33:40;;;;;;;1.42;1.33;;;18.00;64.30;;;;;;5005895;28;20022;-62
2021/09/03 05:36:06;;;;;;;1.45;1.35;;;18.20;63.40;;;;;;5011085;28;20036;-61
2021/09/03 05:38:31;;;;;;;1.70;1.60;;;18.30;63.00;;;;;;5004547;28;20034;-61
2021/09/03 05:40:57;;;;;;;2.28;1.25;;;18.40;62.50;;;;;;5009497;28;20428;-61
2021/09/03 05:43:23;;;;;;;3.40;1.63;;;18.50;63.10;;;;;;5007395;28;20498;-62
2021/09/03 05:45:49;;;;;;;2.17;1.33;;;18.80;61.90;;;;;;5004286;28;20466;-61
2021/09/03 05:48:15;;;;;;;1.73;1.40;;;19.20;60.30;;;;;;5000897;28;20064;-62
2021/09/03 05:50:40;;;;;;;1.30;1.20;;;19.40;59.20;;;;;;5001583;28;20133;-61
2021/09/03 05:53:06;;;;;;;1.50;1.40;;;19.40;58.80;;;;;;5001860;28;20105;-61
2021/09/03 05:55:32;;;;;;;3.13;1.35;;;19.20;58.60;;;;;;5004225;28;20041;-62
2021/09/03 05:57:58;;;;;;;1.73;1.55;;;18.90;59.10;;;;;;5000815;28;20036;-62
2021/09/03 06:00:24;;;;;;;1.67;1.40;;;18.70;59.60;;;;;;5004255;28;20034;-64
2021/09/03 06:02:49;;;;;;;1.30;1.20;;;18.40;60.00;;;;;;5005390;28;20104;-64
2021/09/03 06:05:15;;;;;;;1.60;1.50;;;18.20;60.40;;;;;;4996947;28;20037;-64
2021/09/03 06:07:41;;;;;;;1.33;1.25;;;18.00;60.70;;;;;;4999625;28;20033;-64
2021/09/03 06:10:08;;;;;;;1.60;1.50;;;17.90;61.20;;;;;;5001937;28;20374;-65
2021/09/03 06:12:34;;;;;;;1.80;1.42;;;17.70;61.50;;;;;;5004471;28;20034;-63
2021/09/03 06:14:59;;;;;;;1.95;1.42;;;17.70;61.80;;;;;;5002946;28;20156;-63
2021/09/03 06:17:25;;;;;;;1.80;1.40;;;17.60;61.90;;;;;;5001237;28;20038;-64
2021/09/03 06:19:51;;;;;;;1.58;1.48;;;17.50;61.70;;;;;;4999200;28;20038;-64
2021/09/03 06:22:17;;;;;;;1.60;1.40;;;17.50;61.50;;;;;;5000109;28;20410;-63
2021/09/03 06:24:43;;;;;;;1.88;1.63;;;17.50;61.10;;;;;;5001541;28;20055;-61
2021/09/03 06:27:10;;;;;;;1.70;1.27;;;17.50;61.00;;;;;;5000816;28;20037;-61
2021/09/03 06:29:45;;;;;;;2.95;1.92;;;17.50;61.00;;;;;;5001591;28;20029;-63
2021/09/03 06:32:15;;;;;;;2.55;1.40;;;17.40;61.20;;;;;;4999530;28;20058;-66
2021/09/03 06:34:44;;;;;;;1.95;1.23;;;17.40;61.00;;;;;;5003431;28;20041;-64
2021/09/03 06:37:10;;;;;;;1.60;1.50;;;17.40;60.90;;;;;;4998464;28;20103;-63
2021/09/03 06:39:36;;;;;;;2.05;1.23;;;17.40;60.90;;;;;;5000505;28;20041;-62
2021/09/03 06:42:04;;;;;;;2.15;1.48;;;17.40;60.90;;;;;;4999622;28;20025;-62
2021/09/03 06:44:30;;;;;;;1.42;1.20;;;17.50;60.70;;;;;;4994190;28;20055;-62
2021/09/03 06:46:56;;;;;;;1.95;1.20;;;17.50;60.60;;;;;;5002848;28;20034;-63
2021/09/03 06:49:22;;;;;;;1.45;1.33;;;17.50;60.50;;;;;;5004057;28;20030;-65
2021/09/03 06:51:48;;;;;;;1.38;1.30;;;17.50;60.40;;;;;;5000883;28;20021;-64
2021/09/03 06:54:13;;;;;;;1.20;1.13;;;17.50;60.20;;;;;;5006057;28;20129;-63
2021/09/03 06:56:39;;;;;;;1.42;1.30;;;17.50;60.30;;;;;;5009794;28;20065;-63
2021/09/03 06:59:05;;;;;;;1.17;0.93;;;17.60;60.30;;;;;;5014527;28;20530;-61
2021/09/03 07:01:31;;;;;;;1.27;1.17;;;17.60;60.40;;;;;;5007812;28;20038;-64
2021/09/03 07:03:57;;;;;;;0.88;0.88;;;17.60;60.10;;;;;;5014938;28;20033;-62
2021/09/03 07:06:22;;;;;;;1.45;1.35;;;17.60;60.10;;;;;;5001635;28;20037;-63
2021/09/03 07:08:48;;;;;;;1.35;1.20;;;17.70;59.80;;;;;;5004333;28;20034;-62
2021/09/03 07:11:14;;;;;;;1.42;1.10;;;17.70;59.60;;;;;;5001189;28;20366;-62
2021/09/03 07:13:39;;;;;;;2.10;1.25;;;17.70;59.50;;;;;;5001085;28;20081;-64
2021/09/03 07:16:05;;;;;;;1.20;1.17;;;17.70;59.70;;;;;;4994199;28;20030;-64
2021/09/03 07:18:31;;;;;;;1.92;1.10;;;17.70;59.20;;;;;;4997253;28;20038;-63
2021/09/03 07:20:57;;;;;;;2.20;1.23;;;17.80;58.70;;;;;;5000675;28;20104;-63
2021/09/03 07:23:22;;;;;;;1.65;1.20;;;17.80;58.60;;;;;;4995224;28;20038;-64
2021/09/03 07:25:48;;;;;;;1.27;1.17;;;17.80;58.80;;;;;;4988477;28;20038;-64
2021/09/03 07:28:14;;;;;;;1.15;1.08;;;17.80;59.00;;;;;;4990190;28;20041;-64
2021/09/03 07:30:40;;;;;;;1.23;1.00;;;17.80;58.50;;;;;;4998736;28;20426;-65
2021/09/03 07:33:05;;;;;;;1.10;1.00;;;17.90;58.00;;;;;;4970127;28;20038;-64
2021/09/03 07:35:31;;;;;;;1.20;1.10;;;17.90;57.70;;;;;;4972340;28;20965;-64
2021/09/03 07:37:57;;;;;;;0.82;0.82;;;17.90;57.50;;;;;;4970358;28;20573;-63
2021/09/03 07:40:26;;;;;;;2.35;1.38;;;18.00;57.70;;;;;;4973700;28;20128;-63
2021/09/03 07:42:51;;;;;;;3.42;1.05;;;18.00;57.10;;;;;;4976549;28;20030;-63
2021/09/03 07:45:17;;;;;;;1.08;1.08;;;18.00;56.60;;;;;;4974280;28;20030;-63
2021/09/03 07:47:43;;;;;;;1.05;0.80;;;18.00;56.30;;;;;;4970229;28;20034;-63
2021/09/03 07:50:09;;;;;;;2.10;1.00;;;18.00;56.00;;;;;;4972880;28;20031;-64
2021/09/03 07:52:35;;;;;;;1.05;1.00;;;18.00;56.00;;;;;;4975830;28;20034;-64
2021/09/03 07:55:00;;;;;;;0.95;0.93;;;18.00;55.90;;;;;;4965980;28;20057;-65
2021/09/03 07:57:26;;;;;;;1.42;1.08;;;18.00;55.70;;;;;;4975801;28;20126;-64
2021/09/03 07:59:51;;;;;;;2.67;1.30;;;18.00;55.90;;;;;;4974389;28;20030;-65
2021/09/03 08:02:17;;;;;;;1.25;1.10;;;18.00;55.80;;;;;;4975611;28;20851;-64
2021/09/03 08:04:43;;;;;;;1.40;1.30;;;18.00;55.90;;;;;;4978649;28;20109;-64
2021/09/03 08:07:08;;;;;;;1.00;0.90;;;18.00;56.00;;;;;;4977130;28;20525;-64
2021/09/03 08:09:34;;;;;;;1.73;0.98;;;18.00;56.00;;;;;;4978747;28;20038;-64
2021/09/03 08:12:00;;;;;;;0.70;0.60;;;18.00;55.80;;;;;;4977414;28;20042;-64
2021/09/03 08:14:25;;;;;;;1.38;1.05;;;18.00;55.60;;;;;;4972169;28;20467;-64
2021/09/03 08:16:51;;;;;;;1.30;0.90;;;18.00;55.60;;;;;;4975693;28;20030;-64
2021/09/03 08:19:17;;;;;;;1.98;1.08;;;18.00;55.60;;;;;;4974180;28;20034;-64
2021/09/03 08:21:43;;;;;;;1.45;0.93;;;18.00;55.50;;;;;;4980654;28;20037;-64
2021/09/03 08:24:08;;;;;;;0.82;0.82;;;18.00;55.10;;;;;;4975967;28;20752;-64
2021/09/03 08:26:34;;;;;;;0.85;0.85;;;18.00;55.10;;;;;;4973841;28;20126;-64
2021/09/03 08:29:00;;;;;;;0.73;0.73;;;18.00;55.30;;;;;;4972246;28;20100;-64
2021/09/03 08:31:26;;;;;;;0.65;0.55;;;18.00;55.30;;;;;;4978752;28;20172;-64
2021/09/03 08:33:51;;;;;;;1.65;0.90;;;18.00;55.20;;;;;;4991279;28;20029;-64
2021/09/03 08:36:17;;;;;;;1.17;1.08;;;18.00;55.10;;;;;;5003187;28;20120;-64
2021/09/03 08:38:43;;;;;;;1.15;1.00;;;18.00;55.20;;;;;;4996008;28;20156;-64
2021/09/03 08:41:09;;;;;;;3.03;1.10;;;18.00;55.40;;;;;;4993743;28;20030;-64
2021/09/03 08:43:35;;;;;;;2.13;1.10;;;18.00;55.20;;;;;;4977461;28;20037;-64
2021/09/03 08:46:01;;;;;;;1.73;1.00;;;18.00;55.40;;;;;;4988521;28;20172;-64
2021/09/03 08:48:27;;;;;;;0.90;0.90;;;18.00;55.60;;;;;;4995027;28;20033;-64
2021/09/03 08:50:56;;;;;;;1.10;1.00;;;18.00;55.80;;;;;;4996460;28;20033;-64
2021/09/03 08:53:23;;;;;;;1.20;1.15;;;18.00;55.50;;;;;;4996872;28;20022;-64
2021/09/03 08:55:51;;;;;;;1.30;0.90;;;18.10;55.40;;;;;;4989862;28;20029;-64
2021/09/03 08:58:17;;;;;;;0.90;0.88;;;18.10;55.40;;;;;;4995781;28;20029;-64
2021/09/03 09:00:44;;;;;;;0.90;0.85;;;18.10;55.40;;;;;;4986477;28;20033;-64
2021/09/03 09:03:15;;;;;;;1.00;0.85;;;18.10;55.20;;;;;;4988050;28;20645;-65
2021/09/03 09:05:56;;;;;;;1.08;1.00;;;18.10;55.20;;;;;;4998976;28;20092;-64
2021/09/03 09:08:24;;;;;;;0.88;0.70;;;18.10;55.00;;;;;;4995853;28;20033;-63
2021/09/03 09:10:58;;;;;;;1.27;0.93;;;18.10;55.00;;;;;;4998445;28;20107;-63
2021/09/03 09:13:26;;;;;;;1.10;0.80;;;18.10;55.00;;;;;;4996761;28;20044;-65
2021/09/03 09:16:13;;;;;;;0.52;0.52;;;18.10;54.60;;;;;;4998530;28;20453;-63
2021/09/03 09:18:40;;;;;;;1.00;0.93;;;18.10;54.50;;;;;;4995726;28;20040;-65
2021/09/03 09:21:15;;;;;;;0.80;0.80;;;18.10;54.60;;;;;;4988655;28;20056;-65
2021/09/03 09:23:49;;;;;;;1.95;1.15;;;18.10;54.40;;;;;;4995037;28;20058;-65
2021/09/03 09:26:18;;;;;;;0.80;0.73;;;18.10;54.40;;;;;;4997129;28;20037;-65
2021/09/03 09:28:44;;;;;;;1.10;0.88;;;18.10;54.50;;;;;;5000337;28;20014;-65
2021/09/03 09:31:11;;;;;;;0.80;0.80;;;18.10;54.20;;;;;;4992709;28;20046;-64
2021/09/03 09:33:44;;;;;;;1.70;0.98;;;18.20;54.40;;;;;;4993009;28;20073;-65
2021/09/03 09:36:09;;;;;;;0.70;0.70;;;18.20;54.30;;;;;;4999483;28;20397;-64
2021/09/03 09:38:36;;;;;;;0.60;0.60;;;18.20;54.10;;;;;;4996940;28;20045;-63
2021/09/03 09:41:07;;;;;;;1.10;0.75;;;18.30;54.30;;;;;;4988926;28;20033;-65
2021/09/03 09:43:40;;;;;;;0.90;0.90;;;18.30;54.40;;;;;;4996833;28;20036;-63
2021/09/03 09:46:17;;;;;;;0.57;0.57;;;18.40;54.50;;;;;;4990920;28;20049;-66
2021/09/03 09:48:48;;;;;;;2.40;0.82;;;18.40;53.90;;;;;;4987912;28;20137;-64
2021/09/03 09:51:27;;;;;;;0.90;0.90;;;18.50;53.70;;;;;;4985696;28;20030;-64
2021/09/03 09:54:02;;;;;;;0.80;0.80;;;18.60;53.20;;;;;;4988542;28;20025;-65
2021/09/03 09:56:31;;;;;;;0.73;0.73;;;18.50;52.90;;;;;;4990225;28;20040;-64
2021/09/03 09:59:00;;;;;;;1.73;1.00;;;18.60;52.70;;;;;;4995563;28;20029;-64
2021/09/03 10:01:26;;;;;;;1.70;0.63;;;18.60;52.30;;;;;;4982854;28;20037;-64
2021/09/03 10:03:53;;;;;;;0.80;0.80;;;18.60;52.40;;;;;;4987164;28;20061;-63
2021/09/03 10:06:22;;;;;;;0.85;0.80;;;18.60;52.40;;;;;;4992640;28;20033;-64
2021/09/03 10:08:54;;;;;;;0.80;0.80;;;18.70;52.60;;;;;;4989179;28;20161;-64
2021/09/03 10:11:20;;;;;;;0.90;0.90;;;18.70;52.60;;;;;;4991370;28;20031;-64
2021/09/03 10:13:47;;;;;;;1.65;1.27;;;18.70;52.50;;;;;;4992925;28;20117;-65
2021/09/03 10:16:13;;;;;;;1.50;1.40;;;18.70;52.70;;;;;;4998473;28;20045;-64
2021/09/03 10:18:41;;;;;;;1.50;1.40;;;18.80;52.80;;;;;;4997724;28;20037;-64
2021/09/03 10:21:07;;;;;;;0.82;0.82;;;18.80;53.00;;;;;;4996447;28;20030;-64
2021/09/03 10:23:54;;;;;;;1.77;1.27;;;18.80;53.00;;;;;;5002637;28;20033;-64
2021/09/03 10:26:22;;;;;;;1.67;1.23;;;18.80;52.90;;;;;;4998038;28;20470;-65
2021/09/03 10:28:49;;;;;;;1.95;1.17;;;18.80;53.20;;;;;;4991265;28;20033;-64
2021/09/03 10:31:19;;;;;;;1.58;1.10;;;18.80;52.90;;;;;;4998804;28;20456;-64
2021/09/03 10:33:46;;;;;;;1.77;1.40;;;18.90;52.60;;;;;;5002223;28;20033;-64
2021/09/03 10:36:12;;;;;;;0.93;0.90;;;18.90;52.60;;;;;;4995784;28;20553;-64
2021/09/03 10:38:42;;;;;;;1.10;0.98;;;18.90;52.70;;;;;;4997466;28;20038;-64
2021/09/03 10:41:08;;;;;;;1.05;1.05;;;18.90;52.80;;;;;;5002613;28;20025;-64
2021/09/03 10:43:46;;;;;;;1.25;0.90;;;18.90;52.70;;;;;;5000154;28;20037;-64
2021/09/03 10:46:14;;;;;;;1.17;0.90;;;19.00;52.40;;;;;;5002667;28;20150;-65
2021/09/03 10:48:48;;;;;;;0.77;0.63;;;19.00;52.20;;;;;;4995651;28;20036;-64
2021/09/03 10:51:32;;;;;;;1.05;0.85;;;19.10;52.40;;;;;;4998595;28;20034;-66
2021/09/03 10:53:58;;;;;;;0.77;0.77;;;19.20;52.10;;;;;;4997493;28;20022;-66
2021/09/03 10:56:27;;;;;;;0.63;0.60;;;19.30;51.90;;;;;;4992826;28;20040;-64
2021/09/03 10:59:04;;;;;;;0.90;0.90;;;19.30;51.50;;;;;;5003530;28;20045;-64
2021/09/03 11:01:36;;;;;;;0.68;0.68;;;19.30;51.20;;;;;;5000307;28;20397;-64
2021/09/03 11:04:11;;;;;;;;;;;19.30;51.60;;;;;;4996942;28;20056;-64
2021/09/03 11:06:39;;;;;;;1.77;0.80;;;19.20;50.80;;;;;;5001829;28;20373;-65
2021/09/03 11:09:19;;;;;;;0.75;0.75;;;19.20;51.50;;;;;;5002087;28;20098;-65
2021/09/03 11:11:47;;;;;;;0.70;0.70;;;19.30;51.50;;;;;;4993440;28;20934;-65
2021/09/03 11:14:17;;;;;;;0.82;0.80;;;19.30;51.50;;;;;;4999707;28;20061;-65
2021/09/03 11:16:58;;;;;;;0.82;0.82;;;19.30;51.50;;;;;;4997738;28;20042;-65
2021/09/03 11:19:29;;;;;;;;;;;19.40;51.40;;;;;;4995303;28;20388;-64
2021/09/03 11:22:06;;;;;;;0.88;0.77;;;19.40;51.00;;;;;;4995969;28;19972;-65
2021/09/03 11:24:39;;;;;;;0.85;0.70;;;19.50;51.20;;;;;;5001575;28;20041;-64
2021/09/03 11:27:07;;;;;;;0.82;0.80;;;19.60;51.00;;;;;;4996766;28;20030;-64
2021/09/03 11:30:00;;;;;;;0.80;0.80;;;19.60;50.70;;;;;;5000218;28;20041;-64
2021/09/03 11:32:32;;;;;;;2.50;1.15;;;19.60;50.50;;;;;;4995313;28;20101;-65
2021/09/03 11:35:05;;;;;;;1.08;1.00;;;19.60;50.50;;;;;;4999314;28;20746;-64
2021/09/03 11:37:46;;;;;;;1.00;0.90;;;19.60;50.40;;;;;;4998369;28;20034;-65
2021/09/03 11:40:11;;;;;;;3.40;1.50;;;19.60;50.60;;;;;;4996511;28;20034;-65
2021/09/03 11:42:45;;;;;;;1.33;0.80;;;19.60;50.70;;;;;;4992692;28;20049;-65
2021/09/03 11:45:17;;;;;;;1.50;1.08;;;19.60;50.80;;;;;;4986649;28;20093;-65
2021/09/03 11:48:07;;;;;;;1.23;0.95;;;19.60;50.50;;;;;;4992246;28;20034;-64
2021/09/03 11:51:00;;;;;;;1.15;0.90;;;19.70;50.60;;;;;;4996316;28;20045;-64
2021/09/03 11:53:27;;;;;;;0.70;0.70;;;19.70;50.00;;;;;;4993867;28;20359;-64
2021/09/03 11:55:53;;;;;;;2.70;0.90;;;19.80;50.00;;;;;;4999392;28;20048;-64
2021/09/03 11:58:24;;;;;;;0.80;0.77;;;19.80;49.60;;;;;;4993319;28;20033;-64
2021/09/03 12:00:51;;;;;;;;;;;19.70;49.70;;;;;;4993976;28;20030;-64
2021/09/03 12:03:21;;;;;;;0.88;0.88;;;19.70;49.70;;;;;;4989912;28;19913;-64
2021/09/03 12:05:52;;;;;;;0.80;0.80;;;19.80;50.20;;;;;;4993883;28;20366;-65
2021/09/03 12:08:23;;;;;;;1.75;1.20;;;19.80;49.90;;;;;;4996537;28;20036;-66
2021/09/03 12:10:49;;;;;;;1.08;0.90;;;19.90;49.90;;;;;;5000291;28;20121;-64
2021/09/03 12:13:22;;;;;;;1.08;1.05;;;19.90;50.00;;;;;;4994944;28;20021;-65
2021/09/03 12:16:05;;;;;;;1.05;0.85;;;20.00;49.70;;;;;;4991454;28;20034;-64
2021/09/03 12:18:39;;;;;;;1.50;0.77;;;20.10;49.70;;;;;;4997973;28;20036;-64
2021/09/03 12:21:14;;;;;;;1.27;1.10;;;20.10;50.10;;;;;;5002563;28;20576;-65
2021/09/03 12:23:45;;;;;;;1.80;0.75;;;20.20;49.50;;;;;;4994690;28;20394;-65
2021/09/03 12:26:17;;;;;;;1.45;0.85;;;20.20;49.60;;;;;;4992037;28;20089;-65
2021/09/03 12:28:46;;;;;;;0.70;0.70;;;20.30;49.60;;;;;;4995624;28;20060;-64
2021/09/03 12:31:19;;;;;;;0.90;0.90;;;20.30;49.30;;;;;;4988775;28;20041;-63
2021/09/03 12:33:51;;;;;;;2.35;0.65;;;20.40;49.10;;;;;;4999427;28;20029;-63
2021/09/03 12:36:22;;;;;;;1.35;1.05;;;20.40;49.20;;;;;;4994797;28;20033;-63
2021/09/03 12:38:52;;;;;;;1.15;0.98;;;20.40;48.90;;;;;;4995503;28;20060;-63
2021/09/03 12:41:20;;;;;;;1.08;1.00;;;20.30;48.90;;;;;;5002777;28;20038;-62
2021/09/03 12:43:51;;;;;;;1.17;1.15;;;20.30;49.20;;;;;;5006266;28;20041;-62
2021/09/03 12:46:18;;;;;;;0.73;0.60;;;20.30;49.30;;;;;;4996126;28;20030;-62
2021/09/03 12:49:02;;;;;;;0.68;0.68;;;20.30;49.10;;;;;;4999221;28;20073;-62